sensor_id;sensor_type;location;lat;lon;timestamp;pressure;altitude;pressure_sealevel;temperature;humidity
41688;BME280;27371;42.686;23.362;2022-07-23T00:02:22;95114.66;;;22.18;49.07
41688;BME280;27371;42.686;23.362;2022-07-23T00:04:47;95127.94;;;22.12;49.36
41688;BME280;27371;42.686;23.362;2022-07-23T00:07:13;95119.25;;;22.00;49.63
41688;BME280;27371;42.686;23.362;2022-07-23T00:09:39;95110.50;;;21.88;49.75
41688;BME280;27371;42.686;23.362;2022-07-23T00:12:04;95121.78;;;21.83;50.03
41688;BME280;27371;42.686;23.362;2022-07-23T00:14:30;95125.47;;;21.77;50.48
41688;BME280;27371;42.686;23.362;2022-07-23T00:16:55;95123.94;;;21.61;50.92
41688;BME280;27371;42.686;23.362;2022-07-23T00:19:21;95127.03;;;21.50;50.70
41688;BME280;27371;42.686;23.362;2022-07-23T00:21:46;95116.84;;;21.45;50.56
41688;BME280;27371;42.686;23.362;2022-07-23T00:24:12;95135.28;;;21.34;50.83
41688;BME280;27371;42.686;23.362;2022-07-23T00:26:38;95137.44;;;21.21;51.45
41688;BME280;27371;42.686;23.362;2022-07-23T00:29:03;95126.81;;;21.04;51.72
41688;BME280;27371;42.686;23.362;2022-07-23T00:31:29;95138.19;;;20.93;51.83
41688;BME280;27371;42.686;23.362;2022-07-23T00:33:54;95131.91;;;20.92;51.45
41688;BME280;27371;42.686;23.362;2022-07-23T00:36:23;95136.31;;;20.87;51.35
41688;BME280;27371;42.686;23.362;2022-07-23T00:38:49;95130.78;;;20.87;51.27
41688;BME280;27371;42.686;23.362;2022-07-23T00:41:15;95129.50;;;20.88;51.18
41688;BME280;27371;42.686;23.362;2022-07-23T00:43:40;95123.22;;;20.88;51.05
41688;BME280;27371;42.686;23.362;2022-07-23T00:46:06;95123.56;;;20.84;51.20
41688;BME280;27371;42.686;23.362;2022-07-23T00:48:32;95122.00;;;20.76;51.41
41688;BME280;27371;42.686;23.362;2022-07-23T00:50:57;95134.53;;;20.69;51.57
41688;BME280;27371;42.686;23.362;2022-07-23T00:53:23;95121.78;;;20.66;51.81
41688;BME280;27371;42.686;23.362;2022-07-23T00:55:49;95121.78;;;20.66;51.86
41688;BME280;27371;42.686;23.362;2022-07-23T00:58:16;95128.47;;;20.71;52.02
41688;BME280;27371;42.686;23.362;2022-07-23T01:00:42;95128.13;;;20.74;52.02
41688;BME280;27371;42.686;23.362;2022-07-23T01:03:07;95125.56;;;20.76;52.17
41688;BME280;27371;42.686;23.362;2022-07-23T01:05:33;95127.97;;;20.80;52.15
41688;BME280;27371;42.686;23.362;2022-07-23T01:07:59;95119.88;;;20.82;52.04
41688;BME280;27371;42.686;23.362;2022-07-23T01:10:25;95126.88;;;20.83;52.19
41688;BME280;27371;42.686;23.362;2022-07-23T01:12:57;95118.38;;;20.81;52.23
41688;BME280;27371;42.686;23.362;2022-07-23T01:15:23;95120.97;;;20.79;52.36
41688;BME280;27371;42.686;23.362;2022-07-23T01:17:49;95096.56;;;20.77;52.35
41688;BME280;27371;42.686;23.362;2022-07-23T01:20:14;95125.25;;;20.87;52.29
41688;BME280;27371;42.686;23.362;2022-07-23T01:22:40;95120.97;;;20.86;52.22
41688;BME280;27371;42.686;23.362;2022-07-23T01:25:06;95123.94;;;20.88;52.23
41688;BME280;27371;42.686;23.362;2022-07-23T01:27:32;95115.28;;;20.92;52.20
41688;BME280;27371;42.686;23.362;2022-07-23T01:30:00;95112.41;;;21.05;51.86
41688;BME280;27371;42.686;23.362;2022-07-23T01:32:25;95108.53;;;21.08;51.59
41688;BME280;27371;42.686;23.362;2022-07-23T01:34:51;95107.28;;;21.17;51.61
41688;BME280;27371;42.686;23.362;2022-07-23T01:37:16;95108.44;;;21.22;51.39
41688;BME280;27371;42.686;23.362;2022-07-23T01:39:42;95103.63;;;21.15;51.45
41688;BME280;27371;42.686;23.362;2022-07-23T01:42:07;95108.59;;;21.16;51.36
41688;BME280;27371;42.686;23.362;2022-07-23T01:44:33;95101.91;;;21.11;51.33
41688;BME280;27371;42.686;23.362;2022-07-23T01:46:58;95107.16;;;21.23;51.02
41688;BME280;27371;42.686;23.362;2022-07-23T01:49:24;95109.41;;;21.32;50.73
41688;BME280;27371;42.686;23.362;2022-07-23T01:51:49;95115.38;;;21.44;50.56
41688;BME280;27371;42.686;23.362;2022-07-23T01:54:32;95114.38;;;21.33;50.80
41688;BME280;27371;42.686;23.362;2022-07-23T01:56:59;95095.06;;;21.05;50.68
41688;BME280;27371;42.686;23.362;2022-07-23T01:59:25;95121.69;;;21.16;51.19
41688;BME280;27371;42.686;23.362;2022-07-23T02:01:51;95114.13;;;21.16;50.85
41688;BME280;27371;42.686;23.362;2022-07-23T02:04:17;95113.94;;;21.14;51.09
41688;BME280;27371;42.686;23.362;2022-07-23T02:06:43;95112.09;;;21.09;51.12
41688;BME280;27371;42.686;23.362;2022-07-23T02:09:08;95117.06;;;21.10;51.73
41688;BME280;27371;42.686;23.362;2022-07-23T02:11:34;95116.31;;;21.10;51.42
41688;BME280;27371;42.686;23.362;2022-07-23T02:14:00;95118.34;;;21.09;51.61
41688;BME280;27371;42.686;23.362;2022-07-23T02:16:25;95118.34;;;21.09;51.73
41688;BME280;27371;42.686;23.362;2022-07-23T02:18:51;95107.22;;;21.02;51.91
41688;BME280;27371;42.686;23.362;2022-07-23T02:21:16;95125.53;;;21.05;52.12
41688;BME280;27371;42.686;23.362;2022-07-23T02:23:42;95114.59;;;20.99;51.93
41688;BME280;27371;42.686;23.362;2022-07-23T02:26:07;95119.59;;;21.01;52.30
41688;BME280;27371;42.686;23.362;2022-07-23T02:28:32;95113.09;;;20.90;52.91
41688;BME280;27371;42.686;23.362;2022-07-23T02:30:58;95114.34;;;20.89;52.92
41688;BME280;27371;42.686;23.362;2022-07-23T02:33:24;95121.53;;;20.85;52.90
41688;BME280;27371;42.686;23.362;2022-07-23T02:35:49;95103.56;;;20.71;53.16
41688;BME280;27371;42.686;23.362;2022-07-23T02:38:15;95126.31;;;20.56;52.83
41688;BME280;27371;42.686;23.362;2022-07-23T02:40:40;95128.53;;;19.94;54.34
41688;BME280;27371;42.686;23.362;2022-07-23T02:43:06;95129.53;;;19.49;56.01
41688;BME280;27371;42.686;23.362;2022-07-23T02:45:31;95124.50;;;18.87;57.66
41688;BME280;27371;42.686;23.362;2022-07-23T02:47:57;95116.47;;;18.43;59.14
41688;BME280;27371;42.686;23.362;2022-07-23T02:50:22;95122.00;;;18.57;60.25
41688;BME280;27371;42.686;23.362;2022-07-23T02:52:48;95130.00;;;18.87;60.32
41688;BME280;27371;42.686;23.362;2022-07-23T02:55:14;95127.56;;;19.10;59.75
41688;BME280;27371;42.686;23.362;2022-07-23T02:57:39;95140.84;;;19.11;60.03
41688;BME280;27371;42.686;23.362;2022-07-23T03:00:06;95134.88;;;19.21;59.60
41688;BME280;27371;42.686;23.362;2022-07-23T03:02:32;95136.03;;;19.25;59.23
41688;BME280;27371;42.686;23.362;2022-07-23T03:04:57;95129.66;;;19.30;59.08
41688;BME280;27371;42.686;23.362;2022-07-23T03:07:23;95126.81;;;19.23;58.84
41688;BME280;27371;42.686;23.362;2022-07-23T03:09:49;95141.13;;;19.34;58.80
41688;BME280;27371;42.686;23.362;2022-07-23T03:12:14;95147.47;;;19.43;58.70
41688;BME280;27371;42.686;23.362;2022-07-23T03:14:41;95142.91;;;19.45;59.00
41688;BME280;27371;42.686;23.362;2022-07-23T03:17:07;95139.75;;;19.41;58.73
41688;BME280;27371;42.686;23.362;2022-07-23T03:19:32;95151.41;;;19.47;58.94
41688;BME280;27371;42.686;23.362;2022-07-23T03:21:58;95159.91;;;19.49;58.95
41688;BME280;27371;42.686;23.362;2022-07-23T03:24:24;95149.16;;;19.46;58.78
41688;BME280;27371;42.686;23.362;2022-07-23T03:27:09;95165.09;;;19.53;58.86
41688;BME280;27371;42.686;23.362;2022-07-23T03:29:34;95153.94;;;19.58;58.56
41688;BME280;27371;42.686;23.362;2022-07-23T03:32:03;95167.63;;;19.77;58.40
41688;BME280;27371;42.686;23.362;2022-07-23T03:34:28;95161.63;;;19.87;58.03
41688;BME280;27371;42.686;23.362;2022-07-23T03:36:54;95160.91;;;19.86;57.89
41688;BME280;27371;42.686;23.362;2022-07-23T03:39:19;95160.03;;;19.91;57.79
41688;BME280;27371;42.686;23.362;2022-07-23T03:41:45;95165.22;;;19.95;57.90
41688;BME280;27371;42.686;23.362;2022-07-23T03:44:10;95167.94;;;20.08;57.89
41688;BME280;27371;42.686;23.362;2022-07-23T03:46:36;95162.59;;;20.31;57.51
41688;BME280;27371;42.686;23.362;2022-07-23T03:49:02;95162.16;;;20.61;56.88
41688;BME280;27371;42.686;23.362;2022-07-23T03:51:27;95168.88;;;21.02;55.88
41688;BME280;27371;42.686;23.362;2022-07-23T03:53:53;95164.69;;;21.38;54.49
41688;BME280;27371;42.686;23.362;2022-07-23T03:56:19;95169.25;;;21.71;53.17
41688;BME280;27371;42.686;23.362;2022-07-23T03:58:45;95164.69;;;21.97;52.82
41688;BME280;27371;42.686;23.362;2022-07-23T04:01:11;95171.47;;;22.40;51.50
41688;BME280;27371;42.686;23.362;2022-07-23T04:03:37;95167.75;;;22.76;50.74
41688;BME280;27371;42.686;23.362;2022-07-23T04:06:03;95176.25;;;23.08;49.76
41688;BME280;27371;42.686;23.362;2022-07-23T04:08:28;95173.19;;;23.45;48.04
41688;BME280;27371;42.686;23.362;2022-07-23T04:10:54;95182.75;;;23.82;46.93
41688;BME280;27371;42.686;23.362;2022-07-23T04:13:19;95181.09;;;24.12;46.57
41688;BME280;27371;42.686;23.362;2022-07-23T04:15:45;95182.50;;;24.53;45.68
41688;BME280;27371;42.686;23.362;2022-07-23T04:18:10;95186.66;;;24.70;44.53
41688;BME280;27371;42.686;23.362;2022-07-23T04:20:36;95191.44;;;24.77;44.62
41688;BME280;27371;42.686;23.362;2022-07-23T04:23:01;95188.44;;;25.00;43.84
41688;BME280;27371;42.686;23.362;2022-07-23T04:25:27;95189.34;;;25.45;43.08
41688;BME280;27371;42.686;23.362;2022-07-23T04:27:52;95195.75;;;25.99;42.17
41688;BME280;27371;42.686;23.362;2022-07-23T04:30:18;95201.41;;;26.63;40.92
41688;BME280;27371;42.686;23.362;2022-07-23T04:32:43;95195.66;;;27.08;39.64
41688;BME280;27371;42.686;23.362;2022-07-23T04:35:09;95201.91;;;27.45;39.16
41688;BME280;27371;42.686;23.362;2022-07-23T04:37:34;95204.28;;;27.68;38.49
41688;BME280;27371;42.686;23.362;2022-07-23T04:40:00;95206.50;;;27.99;37.58
41688;BME280;27371;42.686;23.362;2022-07-23T04:42:25;95199.34;;;28.27;36.57
41688;BME280;27371;42.686;23.362;2022-07-23T04:44:51;95196.66;;;28.49;36.38
41688;BME280;27371;42.686;23.362;2022-07-23T04:47:16;95205.63;;;28.57;35.84
41688;BME280;27371;42.686;23.362;2022-07-23T04:49:42;95202.28;;;28.49;36.07
41688;BME280;27371;42.686;23.362;2022-07-23T04:52:07;95209.97;;;28.19;36.13
41688;BME280;27371;42.686;23.362;2022-07-23T04:54:33;95220.44;;;28.18;36.46
41688;BME280;27371;42.686;23.362;2022-07-23T04:56:58;95214.78;;;28.48;35.87
41688;BME280;27371;42.686;23.362;2022-07-23T04:59:24;95227.00;;;28.93;34.33
41688;BME280;27371;42.686;23.362;2022-07-23T05:01:49;95219.13;;;29.11;34.28
41688;BME280;27371;42.686;23.362;2022-07-23T05:04:15;95222.47;;;29.19;34.09
41688;BME280;27371;42.686;23.362;2022-07-23T05:06:40;95216.53;;;29.25;33.94
41688;BME280;27371;42.686;23.362;2022-07-23T05:09:07;95218.34;;;29.20;34.20
41688;BME280;27371;42.686;23.362;2022-07-23T05:11:33;95223.28;;;29.32;34.00
41688;BME280;27371;42.686;23.362;2022-07-23T05:13:58;95223.75;;;29.49;33.59
41688;BME280;27371;42.686;23.362;2022-07-23T05:16:24;95216.56;;;29.68;33.14
41688;BME280;27371;42.686;23.362;2022-07-23T05:18:49;95221.75;;;29.62;33.10
41688;BME280;27371;42.686;23.362;2022-07-23T05:21:15;95224.16;;;29.56;33.32
41688;BME280;27371;42.686;23.362;2022-07-23T05:23:40;95230.28;;;28.90;34.62
41688;BME280;27371;42.686;23.362;2022-07-23T05:26:06;95229.25;;;28.85;34.89
41688;BME280;27371;42.686;23.362;2022-07-23T05:28:31;95221.44;;;28.83;35.00
41688;BME280;27371;42.686;23.362;2022-07-23T05:30:56;95223.53;;;28.23;36.01
41688;BME280;27371;42.686;23.362;2022-07-23T05:33:22;95211.63;;;28.03;36.22
41688;BME280;27371;42.686;23.362;2022-07-23T05:35:47;95226.31;;;28.32;35.62
41688;BME280;27371;42.686;23.362;2022-07-23T05:38:13;95222.34;;;28.26;35.94
41688;BME280;27371;42.686;23.362;2022-07-23T05:40:38;95221.34;;;28.11;36.30
41688;BME280;27371;42.686;23.362;2022-07-23T05:43:04;95218.53;;;28.11;36.29
41688;BME280;27371;42.686;23.362;2022-07-23T05:45:29;95221.50;;;28.23;35.62
41688;BME280;27371;42.686;23.362;2022-07-23T05:47:55;95219.84;;;28.30;35.11
41688;BME280;27371;42.686;23.362;2022-07-23T05:50:20;95223.19;;;28.48;34.75
41688;BME280;27371;42.686;23.362;2022-07-23T05:52:46;95224.81;;;28.41;35.98
41688;BME280;27371;42.686;23.362;2022-07-23T05:55:12;95233.41;;;28.24;35.91
41688;BME280;27371;42.686;23.362;2022-07-23T05:57:38;95225.28;;;28.28;35.52
41688;BME280;27371;42.686;23.362;2022-07-23T06:00:04;95232.09;;;28.25;35.77
41688;BME280;27371;42.686;23.362;2022-07-23T06:02:30;95225.59;;;28.32;35.45
41688;BME280;27371;42.686;23.362;2022-07-23T06:04:56;95222.69;;;28.10;35.67
41688;BME280;27371;42.686;23.362;2022-07-23T06:07:21;95226.25;;;28.01;35.81
41688;BME280;27371;42.686;23.362;2022-07-23T06:09:47;95217.41;;;27.85;36.44
41688;BME280;27371;42.686;23.362;2022-07-23T06:12:15;95214.31;;;27.91;36.68
41688;BME280;27371;42.686;23.362;2022-07-23T06:14:40;95219.88;;;28.10;36.27
41688;BME280;27371;42.686;23.362;2022-07-23T06:17:07;95217.00;;;28.49;35.86
41688;BME280;27371;42.686;23.362;2022-07-23T06:19:32;95219.75;;;28.69;34.77
41688;BME280;27371;42.686;23.362;2022-07-23T06:21:58;95219.00;;;28.68;34.65
41688;BME280;27371;42.686;23.362;2022-07-23T06:24:23;95223.41;;;28.71;34.87
41688;BME280;27371;42.686;23.362;2022-07-23T06:26:49;95218.47;;;28.50;34.21
41688;BME280;27371;42.686;23.362;2022-07-23T06:29:14;95219.25;;;28.31;35.02
41688;BME280;27371;42.686;23.362;2022-07-23T06:31:40;95201.13;;;28.32;35.20
41688;BME280;27371;42.686;23.362;2022-07-23T06:34:05;95212.13;;;28.50;35.66
41688;BME280;27371;42.686;23.362;2022-07-23T06:36:31;95211.50;;;28.61;35.19
41688;BME280;27371;42.686;23.362;2022-07-23T06:38:56;95212.06;;;28.69;34.84
41688;BME280;27371;42.686;23.362;2022-07-23T06:41:22;95211.75;;;28.75;35.40
41688;BME280;27371;42.686;23.362;2022-07-23T06:43:48;95221.19;;;28.70;35.73
41688;BME280;27371;42.686;23.362;2022-07-23T06:46:14;95210.63;;;28.58;35.84
41688;BME280;27371;42.686;23.362;2022-07-23T06:48:39;95213.81;;;28.74;35.24
41688;BME280;27371;42.686;23.362;2022-07-23T06:51:05;95216.53;;;28.94;34.74
41688;BME280;27371;42.686;23.362;2022-07-23T06:53:30;95205.84;;;29.12;33.82
41688;BME280;27371;42.686;23.362;2022-07-23T06:55:56;95208.66;;;29.12;33.89
41688;BME280;27371;42.686;23.362;2022-07-23T06:58:22;95214.19;;;29.21;33.59
41688;BME280;27371;42.686;23.362;2022-07-23T07:00:47;95212.22;;;29.34;33.73
41688;BME280;27371;42.686;23.362;2022-07-23T07:03:13;95208.03;;;29.13;33.69
41688;BME280;27371;42.686;23.362;2022-07-23T07:05:38;95215.34;;;29.28;33.37
41688;BME280;27371;42.686;23.362;2022-07-23T07:08:07;95208.59;;;29.43;32.66
41688;BME280;27371;42.686;23.362;2022-07-23T07:10:32;95204.31;;;29.63;32.54
41688;BME280;27371;42.686;23.362;2022-07-23T07:12:58;95205.72;;;29.74;32.89
41688;BME280;27371;42.686;23.362;2022-07-23T07:15:23;95201.22;;;29.81;32.52
41688;BME280;27371;42.686;23.362;2022-07-23T07:17:49;95205.69;;;30.07;32.54
41688;BME280;27371;42.686;23.362;2022-07-23T07:20:15;95208.66;;;30.09;32.33
41688;BME280;27371;42.686;23.362;2022-07-23T07:22:40;95205.84;;;30.21;31.59
41688;BME280;27371;42.686;23.362;2022-07-23T07:25:06;95200.06;;;30.40;31.63
41688;BME280;27371;42.686;23.362;2022-07-23T07:27:32;95196.66;;;30.66;31.04
41688;BME280;27371;42.686;23.362;2022-07-23T07:29:58;95198.63;;;30.75;30.53
41688;BME280;27371;42.686;23.362;2022-07-23T07:32:23;95196.94;;;30.81;30.50
41688;BME280;27371;42.686;23.362;2022-07-23T07:34:49;95189.94;;;30.59;30.90
41688;BME280;27371;42.686;23.362;2022-07-23T07:37:14;95195.47;;;30.69;30.31
41688;BME280;27371;42.686;23.362;2022-07-23T07:39:40;95191.66;;;30.76;29.75
41688;BME280;27371;42.686;23.362;2022-07-23T07:42:05;95195.84;;;30.87;29.67
41688;BME280;27371;42.686;23.362;2022-07-23T07:44:31;95191.44;;;30.95;29.32
41688;BME280;27371;42.686;23.362;2022-07-23T07:46:56;95195.59;;;30.94;29.13
41688;BME280;27371;42.686;23.362;2022-07-23T07:49:22;95187.41;;;30.98;29.40
41688;BME280;27371;42.686;23.362;2022-07-23T07:51:49;95194.84;;;31.05;28.75
41688;BME280;27371;42.686;23.362;2022-07-23T07:54:14;95190.81;;;31.09;29.27
41688;BME280;27371;42.686;23.362;2022-07-23T07:56:40;95186.38;;;31.29;28.40
41688;BME280;27371;42.686;23.362;2022-07-23T07:59:06;95185.16;;;31.32;28.76
41688;BME280;27371;42.686;23.362;2022-07-23T08:01:31;95177.44;;;31.44;28.58
41688;BME280;27371;42.686;23.362;2022-07-23T08:03:57;95171.69;;;31.42;28.65
41688;BME280;27371;42.686;23.362;2022-07-23T08:06:22;95174.34;;;31.52;28.71
41688;BME280;27371;42.686;23.362;2022-07-23T08:08:48;95176.69;;;31.81;28.38
41688;BME280;27371;42.686;23.362;2022-07-23T08:11:13;95177.53;;;31.84;28.56
41688;BME280;27371;42.686;23.362;2022-07-23T08:13:39;95176.41;;;31.89;28.63
41688;BME280;27371;42.686;23.362;2022-07-23T08:16:04;95178.25;;;31.96;27.95
41688;BME280;27371;42.686;23.362;2022-07-23T08:18:30;95171.13;;;31.95;27.69
41688;BME280;27371;42.686;23.362;2022-07-23T08:20:56;95172.41;;;31.80;28.03
41688;BME280;27371;42.686;23.362;2022-07-23T08:23:21;95170.13;;;32.02;27.11
41688;BME280;27371;42.686;23.362;2022-07-23T08:25:47;95170.03;;;32.39;26.68
41688;BME280;27371;42.686;23.362;2022-07-23T08:28:13;95179.47;;;32.72;26.22
41688;BME280;27371;42.686;23.362;2022-07-23T08:30:41;95170.59;;;32.77;27.06
41688;BME280;27371;42.686;23.362;2022-07-23T08:33:15;95170.00;;;32.93;26.00
41688;BME280;27371;42.686;23.362;2022-07-23T08:35:42;95171.03;;;32.72;26.35
41688;BME280;27371;42.686;23.362;2022-07-23T08:38:10;95165.47;;;32.60;26.42
41688;BME280;27371;42.686;23.362;2022-07-23T08:40:38;95176.03;;;32.59;26.62
41688;BME280;27371;42.686;23.362;2022-07-23T08:43:09;95160.06;;;32.78;26.55
41688;BME280;27371;42.686;23.362;2022-07-23T08:45:39;95173.00;;;32.83;26.30
41688;BME280;27371;42.686;23.362;2022-07-23T08:48:08;95168.22;;;32.99;26.65
41688;BME280;27371;42.686;23.362;2022-07-23T08:50:35;95165.81;;;33.21;25.61
41688;BME280;27371;42.686;23.362;2022-07-23T08:53:07;95162.13;;;33.33;25.16
41688;BME280;27371;42.686;23.362;2022-07-23T08:55:33;95166.53;;;33.36;25.32
41688;BME280;27371;42.686;23.362;2022-07-23T08:57:59;95159.53;;;33.37;25.21
41688;BME280;27371;42.686;23.362;2022-07-23T09:00:24;95160.75;;;33.47;25.25
41688;BME280;27371;42.686;23.362;2022-07-23T09:02:50;95152.72;;;33.42;25.68
41688;BME280;27371;42.686;23.362;2022-07-23T09:05:17;95159.91;;;33.59;25.87
41688;BME280;27371;42.686;23.362;2022-07-23T09:10:29;95155.72;;;33.89;24.42
41688;BME280;27371;42.686;23.362;2022-07-23T09:12:56;95151.06;;;33.80;24.47
41688;BME280;27371;42.686;23.362;2022-07-23T09:15:22;95159.72;;;33.84;24.38
41688;BME280;27371;42.686;23.362;2022-07-23T09:17:47;95145.50;;;33.82;24.03
41688;BME280;27371;42.686;23.362;2022-07-23T09:20:15;95154.50;;;33.79;23.89
41688;BME280;27371;42.686;23.362;2022-07-23T09:22:46;95150.41;;;33.82;23.74
41688;BME280;27371;42.686;23.362;2022-07-23T09:25:17;95150.25;;;33.93;23.86
41688;BME280;27371;42.686;23.362;2022-07-23T09:30:16;95154.09;;;34.30;23.31
41688;BME280;27371;42.686;23.362;2022-07-23T09:32:42;95148.25;;;34.42;23.01
41688;BME280;27371;42.686;23.362;2022-07-23T09:35:08;95145.53;;;34.28;22.99
41688;BME280;27371;42.686;23.362;2022-07-23T09:37:34;95150.53;;;34.29;23.31
41688;BME280;27371;42.686;23.362;2022-07-23T09:40:05;95140.97;;;34.36;22.79
41688;BME280;27371;42.686;23.362;2022-07-23T09:42:31;95142.06;;;34.45;22.51
41688;BME280;27371;42.686;23.362;2022-07-23T09:44:58;95137.13;;;34.46;23.02
41688;BME280;27371;42.686;23.362;2022-07-23T09:47:27;95138.66;;;34.49;22.53
41688;BME280;27371;42.686;23.362;2022-07-23T09:52:29;95140.25;;;34.52;21.50
41688;BME280;27371;42.686;23.362;2022-07-23T09:55:00;95134.31;;;34.62;21.88
41688;BME280;27371;42.686;23.362;2022-07-23T09:57:26;95130.56;;;34.73;21.50
41688;BME280;27371;42.686;23.362;2022-07-23T09:59:52;95131.66;;;34.81;21.52
41688;BME280;27371;42.686;23.362;2022-07-23T10:02:18;95126.09;;;34.84;21.54
41688;BME280;27371;42.686;23.362;2022-07-23T10:04:44;95119.97;;;34.89;20.78
41688;BME280;27371;42.686;23.362;2022-07-23T10:07:10;95120.63;;;34.88;20.38
41688;BME280;27371;42.686;23.362;2022-07-23T10:09:38;95116.03;;;34.96;20.35
41688;BME280;27371;42.686;23.362;2022-07-23T10:12:10;95109.44;;;35.08;20.60
41688;BME280;27371;42.686;23.362;2022-07-23T10:14:50;95117.25;;;35.25;20.28
41688;BME280;27371;42.686;23.362;2022-07-23T10:17:17;95111.56;;;35.25;19.98
41688;BME280;27371;42.686;23.362;2022-07-23T10:19:43;95106.16;;;35.31;20.09
41688;BME280;27371;42.686;23.362;2022-07-23T10:30:02;95094.72;;;35.63;19.24
41688;BME280;27371;42.686;23.362;2022-07-23T10:32:45;95098.47;;;35.67;18.49
41688;BME280;27371;42.686;23.362;2022-07-23T10:35:37;95093.91;;;35.60;18.83
41688;BME280;27371;42.686;23.362;2022-07-23T10:39:10;95096.09;;;35.62;19.12
41688;BME280;27371;42.686;23.362;2022-07-23T10:41:15;95083.81;;;35.73;18.08
41688;BME280;27371;42.686;23.362;2022-07-23T10:46:33;95077.88;;;35.85;18.22
41688;BME280;27371;42.686;23.362;2022-07-23T10:49:28;95068.75;;;35.68;18.31
41688;BME280;27371;42.686;23.362;2022-07-23T10:52:16;95069.63;;;35.73;18.66
41688;BME280;27371;42.686;23.362;2022-07-23T10:54:45;95066.00;;;35.71;18.72
41688;BME280;27371;42.686;23.362;2022-07-23T10:57:12;95059.25;;;35.62;18.78
41688;BME280;27371;42.686;23.362;2022-07-23T11:02:28;95047.03;;;35.75;18.67
41688;BME280;27371;42.686;23.362;2022-07-23T11:04:54;95062.31;;;35.86;18.46
41688;BME280;27371;42.686;23.362;2022-07-23T11:07:24;95055.84;;;35.83;17.76
41688;BME280;27371;42.686;23.362;2022-07-23T11:09:49;95053.66;;;35.82;17.90
41688;BME280;27371;42.686;23.362;2022-07-23T11:15:03;95042.19;;;35.98;16.61
41688;BME280;27371;42.686;23.362;2022-07-23T11:17:31;95043.00;;;36.00;16.58
41688;BME280;27371;42.686;23.362;2022-07-23T11:22:35;95037.63;;;35.88;16.79
41688;BME280;27371;42.686;23.362;2022-07-23T11:25:02;95027.81;;;35.91;16.08
41688;BME280;27371;42.686;23.362;2022-07-23T11:27:42;95029.00;;;36.04;15.97
41688;BME280;27371;42.686;23.362;2022-07-23T11:30:09;95032.75;;;36.09;16.12
41688;BME280;27371;42.686;23.362;2022-07-23T11:32:38;95026.91;;;36.25;15.37
41688;BME280;27371;42.686;23.362;2022-07-23T11:35:25;95021.41;;;36.29;15.48
41688;BME280;27371;42.686;23.362;2022-07-23T11:37:53;95019.28;;;36.29;15.32
41688;BME280;27371;42.686;23.362;2022-07-23T11:40:26;95018.78;;;36.35;15.08
41688;BME280;27371;42.686;23.362;2022-07-23T11:42:55;95016.31;;;36.45;14.90
41688;BME280;27371;42.686;23.362;2022-07-23T11:45:21;95022.31;;;36.53;14.58
41688;BME280;27371;42.686;23.362;2022-07-23T11:47:46;95025.34;;;36.60;14.82
41688;BME280;27371;42.686;23.362;2022-07-23T11:50:12;95017.03;;;36.66;14.78
41688;BME280;27371;42.686;23.362;2022-07-23T11:52:38;95017.91;;;36.70;14.51
41688;BME280;27371;42.686;23.362;2022-07-23T11:55:07;95004.38;;;36.69;13.93
41688;BME280;27371;42.686;23.362;2022-07-23T11:57:38;95007.81;;;36.65;13.66
41688;BME280;27371;42.686;23.362;2022-07-23T12:00:19;95005.75;;;36.68;13.33
41688;BME280;27371;42.686;23.362;2022-07-23T12:02:48;94994.94;;;36.42;13.42
41688;BME280;27371;42.686;23.362;2022-07-23T12:05:19;94998.66;;;36.27;13.30
41688;BME280;27371;42.686;23.362;2022-07-23T12:07:46;95006.34;;;36.44;13.48
41688;BME280;27371;42.686;23.362;2022-07-23T12:10:19;95006.28;;;36.62;13.43
41688;BME280;27371;42.686;23.362;2022-07-23T12:12:47;94994.63;;;36.74;13.22
41688;BME280;27371;42.686;23.362;2022-07-23T12:15:15;94999.75;;;36.79;13.83
41688;BME280;27371;42.686;23.362;2022-07-23T12:17:44;95000.03;;;36.88;13.37
41688;BME280;27371;42.686;23.362;2022-07-23T12:20:18;94994.50;;;36.92;12.97
41688;BME280;27371;42.686;23.362;2022-07-23T12:22:48;94989.91;;;37.03;12.84
41688;BME280;27371;42.686;23.362;2022-07-23T12:25:19;95002.66;;;37.02;12.77
41688;BME280;27371;42.686;23.362;2022-07-23T12:27:46;94995.66;;;37.05;13.11
41688;BME280;27371;42.686;23.362;2022-07-23T12:30:20;94979.34;;;37.05;13.20
41688;BME280;27371;42.686;23.362;2022-07-23T12:32:48;94991.69;;;37.14;13.03
41688;BME280;27371;42.686;23.362;2022-07-23T12:35:14;94977.09;;;37.02;12.90
41688;BME280;27371;42.686;23.362;2022-07-23T12:37:41;94974.69;;;36.94;12.89
41688;BME280;27371;42.686;23.362;2022-07-23T12:40:26;94978.41;;;36.98;13.17
41688;BME280;27371;42.686;23.362;2022-07-23T12:42:58;94969.16;;;36.98;13.20
41688;BME280;27371;42.686;23.362;2022-07-23T12:45:25;94967.09;;;36.78;13.21
41688;BME280;27371;42.686;23.362;2022-07-23T12:48:05;94973.78;;;36.45;13.87
41688;BME280;27371;42.686;23.362;2022-07-23T12:50:43;94966.72;;;36.26;14.04
41688;BME280;27371;42.686;23.362;2022-07-23T12:55:37;94958.44;;;36.12;13.85
41688;BME280;27371;42.686;23.362;2022-07-23T12:58:08;94961.19;;;36.30;13.81
41688;BME280;27371;42.686;23.362;2022-07-23T13:01:03;94951.06;;;36.45;13.86
41688;BME280;27371;42.686;23.362;2022-07-23T13:03:40;94949.59;;;36.44;13.36
41688;BME280;27371;42.686;23.362;2022-07-23T13:06:10;94951.97;;;36.10;13.58
41688;BME280;27371;42.686;23.362;2022-07-23T13:08:38;94950.53;;;36.09;13.50
41688;BME280;27371;42.686;23.362;2022-07-23T13:11:05;94950.72;;;36.35;13.36
41688;BME280;27371;42.686;23.362;2022-07-23T13:13:33;94950.13;;;36.39;13.52
41688;BME280;27371;42.686;23.362;2022-07-23T13:16:00;94953.44;;;36.53;13.05
41688;BME280;27371;42.686;23.362;2022-07-23T13:18:26;94943.94;;;36.64;12.53
41688;BME280;27371;42.686;23.362;2022-07-23T13:20:53;94946.38;;;36.74;12.79